Time;durP1;ratioP1;P1;durP2;ratioP2;P2;SDS_P1;SDS_P2;PMS_P1;PMS_P2;Temp;Humidity;BMP_temperature;BMP_pressure;BME280_temperature;BME280_humidity;BME280_pressure;Samples;Min_cycle;Max_cycle;Signal;HPM_P1;HPM_P2
2022/07/28 00:00:27;;;;;;;8.80;4.20;;;27.40;51.00;;;;;;6246450;23;20327;-70
2022/07/28 00:02:53;;;;;;;10.32;4.28;;;27.40;51.30;;;;;;6245564;23;20008;-70
2022/07/28 00:05:19;;;;;;;5.55;4.03;;;27.40;51.20;;;;;;6245523;22;20000;-69
2022/07/28 00:07:44;;;;;;;5.53;3.90;;;27.40;51.40;;;;;;6245493;23;20034;-69
2022/07/28 00:10:10;;;;;;;5.97;3.80;;;27.30;51.90;;;;;;6246242;23;20035;-69
2022/07/28 00:12:37;;;;;;;8.68;4.05;;;27.30;52.00;;;;;;6246296;22;20019;-69
2022/07/28 00:15:03;;;;;;;7.38;3.95;;;27.30;52.00;;;;;;6245954;22;20319;-69
2022/07/28 00:17:29;;;;;;;6.80;3.85;;;27.30;51.80;;;;;;6245842;22;20016;-69
2022/07/28 00:19:55;;;;;;;9.25;4.30;;;27.20;51.80;;;;;;6245789;22;20330;-69
2022/07/28 00:22:20;;;;;;;9.75;3.80;;;27.30;51.70;;;;;;6245386;23;20000;-69
2022/07/28 00:24:46;;;;;;;6.70;3.60;;;27.30;51.70;;;;;;6246445;22;20011;-69
2022/07/28 00:27:13;;;;;;;7.13;3.97;;;27.30;51.80;;;;;;6245544;22;20020;-69
2022/07/28 00:29:39;;;;;;;8.45;3.97;;;27.30;51.70;;;;;;6245592;22;20008;-69
2022/07/28 00:32:05;;;;;;;12.18;3.80;;;27.30;51.80;;;;;;6246088;23;20016;-69
2022/07/28 00:34:31;;;;;;;6.93;3.55;;;27.30;51.90;;;;;;6244825;23;20003;-69
2022/07/28 00:36:56;;;;;;;11.32;3.47;;;27.30;51.90;;;;;;6243569;22;20023;-69
2022/07/28 00:39:22;;;;;;;6.43;3.65;;;27.30;51.90;;;;;;6245850;23;20001;-69
2022/07/28 00:41:48;;;;;;;6.93;4.05;;;27.30;52.00;;;;;;6245992;23;20004;-69
2022/07/28 00:44:13;;;;;;;4.97;3.38;;;27.30;52.40;;;;;;6245725;22;20061;-70
2022/07/28 00:46:39;;;;;;;7.03;4.00;;;27.20;52.60;;;;;;6245461;23;20027;-69
2022/07/28 00:49:05;;;;;;;6.63;3.72;;;27.20;52.50;;;;;;6245894;22;20442;-69
2022/07/28 00:51:31;;;;;;;5.50;3.75;;;27.20;52.60;;;;;;6245542;22;20111;-69
2022/07/28 00:53:57;;;;;;;5.63;3.90;;;27.20;52.60;;;;;;6245852;22;20012;-69
2022/07/28 00:56:23;;;;;;;12.85;5.05;;;27.20;52.80;;;;;;6245441;23;20007;-69
2022/07/28 00:58:49;;;;;;;10.05;3.90;;;27.10;52.90;;;;;;6243000;22;20024;-69
2022/07/28 01:01:18;;;;;;;8.52;3.78;;;27.10;53.10;;;;;;6242210;22;20008;-69
2022/07/28 01:03:54;;;;;;;7.22;3.50;;;27.10;53.20;;;;;;6242311;22;20047;-69
2022/07/28 01:06:47;;;;;;;5.63;4.15;;;27.00;53.20;;;;;;6245050;22;20437;-69
2022/07/28 01:09:25;;;;;;;6.15;3.78;;;27.00;53.30;;;;;;6245044;22;20004;-69
2022/07/28 01:12:08;;;;;;;7.82;4.13;;;27.10;53.30;;;;;;6245147;22;19996;-69
2022/07/28 01:14:47;;;;;;;6.65;3.55;;;27.00;53.50;;;;;;6244768;22;20079;-69
2022/07/28 01:17:43;;;;;;;6.70;3.83;;;27.00;53.70;;;;;;6244992;22;20008;-70
2022/07/28 01:20:21;;;;;;;9.27;4.28;;;27.00;53.70;;;;;;6244202;23;20000;-69
2022/07/28 01:23:09;;;;;;;6.20;3.53;;;27.00;53.70;;;;;;6244730;22;20035;-70
2022/07/28 01:26:07;;;;;;;9.50;4.25;;;27.00;54.00;;;;;;6245075;23;20087;-70
2022/07/28 01:28:51;;;;;;;7.45;4.15;;;26.90;54.40;;;;;;6244289;23;20020;-70
2022/07/28 01:31:23;;;;;;;9.63;3.83;;;26.90;54.10;;;;;;6244649;23;20031;-69
2022/07/28 01:33:55;;;;;;;4.85;3.50;;;26.90;53.70;;;;;;6244876;22;20046;-70
2022/07/28 01:36:27;;;;;;;5.53;3.60;;;26.90;54.00;;;;;;6245114;22;20008;-70
2022/07/28 01:38:53;;;;;;;9.98;3.65;;;26.80;53.90;;;;;;6244484;22;20058;-69
2022/07/28 01:41:22;;;;;;;5.88;3.70;;;26.80;54.20;;;;;;6244538;22;20055;-70
2022/07/28 01:43:55;;;;;;;12.30;4.35;;;26.80;54.10;;;;;;6244566;22;20019;-70
2022/07/28 01:46:23;;;;;;;9.85;3.88;;;26.80;54.20;;;;;;6244733;22;20053;-70
2022/07/28 01:48:50;;;;;;;5.13;3.65;;;26.70;54.40;;;;;;6244713;22;20004;-70
2022/07/28 01:51:17;;;;;;;6.35;3.50;;;26.70;54.30;;;;;;6244754;22;19996;-70
2022/07/28 01:53:44;;;;;;;5.47;3.53;;;26.70;54.30;;;;;;6244943;22;20035;-70
2022/07/28 01:56:14;;;;;;;7.63;4.22;;;26.70;54.40;;;;;;6245844;22;20076;-70
2022/07/28 01:58:42;;;;;;;6.65;3.83;;;26.60;54.30;;;;;;6246169;22;20020;-70
2022/07/28 02:01:10;;;;;;;6.50;3.88;;;26.70;54.60;;;;;;6245636;22;20415;-70
2022/07/28 02:03:38;;;;;;;10.55;4.10;;;26.60;54.70;;;;;;6243428;22;20079;-69
2022/07/28 02:06:05;;;;;;;8.05;3.95;;;26.60;55.00;;;;;;6242484;22;20010;-69
2022/07/28 02:08:33;;;;;;;7.18;3.75;;;26.60;54.70;;;;;;6243679;22;20003;-70
2022/07/28 02:13:47;;;;;;;11.35;3.47;;;26.60;54.00;;;;;;6245776;23;20019;-69
2022/07/28 02:16:14;;;;;;;6.85;3.10;;;26.60;54.00;;;;;;6246017;22;20035;-70
2022/07/28 02:18:42;;;;;;;5.70;3.38;;;26.60;54.10;;;;;;6245848;22;20416;-69
2022/07/28 02:21:09;;;;;;;7.00;3.67;;;26.60;54.10;;;;;;6245776;22;20039;-70
2022/07/28 02:23:38;;;;;;;7.10;3.42;;;26.60;53.90;;;;;;6245906;22;20012;-70
2022/07/28 02:26:08;;;;;;;8.50;3.42;;;26.50;53.90;;;;;;6245392;22;20322;-69
2022/07/28 02:28:34;;;;;;;5.32;3.70;;;26.50;54.10;;;;;;6245727;22;20465;-69
2022/07/28 02:31:28;;;;;;;7.57;3.55;;;26.50;53.70;;;;;;6245621;22;20415;-70
2022/07/28 02:33:58;;;;;;;4.90;3.05;;;26.50;54.30;;;;;;6245875;22;20008;-70
2022/07/28 02:36:36;;;;;;;5.53;3.50;;;26.50;54.20;;;;;;6245697;22;20004;-70
2022/07/28 02:39:06;;;;;;;6.78;3.22;;;26.50;54.20;;;;;;6245655;22;20102;-69
2022/07/28 02:41:36;;;;;;;9.05;3.78;;;26.40;54.60;;;;;;6245427;22;20438;-70
2022/07/28 02:44:10;;;;;;;11.13;4.07;;;26.40;54.80;;;;;;6245556;22;20059;-69
2022/07/28 02:46:41;;;;;;;10.65;4.10;;;26.40;54.80;;;;;;6245986;22;20031;-69
2022/07/28 02:49:17;;;;;;;12.55;4.95;;;26.40;54.80;;;;;;6245921;22;20031;-70
2022/07/28 02:51:44;;;;;;;8.60;3.88;;;26.30;54.80;;;;;;6245711;22;20050;-69
2022/07/28 02:54:12;;;;;;;7.47;3.67;;;26.30;54.60;;;;;;6245778;22;20012;-69
2022/07/28 02:56:39;;;;;;;10.98;3.80;;;26.30;54.70;;;;;;6245496;22;20004;-69
2022/07/28 02:59:06;;;;;;;5.50;3.63;;;26.20;54.80;;;;;;6247314;22;20438;-70
2022/07/28 03:01:33;;;;;;;6.72;3.72;;;26.20;54.90;;;;;;6247511;22;20000;-70
2022/07/28 03:03:59;;;;;;;5.50;3.40;;;26.20;55.40;;;;;;6247487;22;20027;-70
2022/07/28 03:06:25;;;;;;;6.13;3.30;;;26.20;54.80;;;;;;6247294;22;20318;-69
2022/07/28 03:08:51;;;;;;;5.85;3.30;;;26.20;55.10;;;;;;6247535;22;20000;-69
2022/07/28 03:11:16;;;;;;;7.80;3.38;;;26.20;54.90;;;;;;6247513;23;20373;-70
2022/07/28 03:13:42;;;;;;;6.65;3.60;;;26.10;54.50;;;;;;6247411;23;20004;-76
2022/07/28 03:16:08;;;;;;;4.35;3.03;;;26.10;54.50;;;;;;6247674;22;19996;-70
2022/07/28 03:18:34;;;;;;;7.40;3.25;;;26.10;54.70;;;;;;6247061;23;20012;-69
2022/07/28 03:20:59;;;;;;;4.38;3.17;;;26.00;54.70;;;;;;6247504;22;20433;-70
2022/07/28 03:23:34;;;;;;;7.55;3.60;;;26.10;54.80;;;;;;6247432;23;20419;-69
2022/07/28 03:26:07;;;;;;;4.32;2.85;;;26.00;55.10;;;;;;6247108;22;20004;-69
2022/07/28 03:28:34;;;;;;;5.72;3.50;;;26.00;55.30;;;;;;6247071;22;20451;-69
2022/07/28 03:31:04;;;;;;;7.22;3.30;;;26.00;55.40;;;;;;6247362;22;20385;-70
2022/07/28 03:33:30;;;;;;;7.60;3.10;;;26.00;55.50;;;;;;6246973;22;20091;-69
2022/07/28 03:36:01;;;;;;;9.52;3.28;;;26.00;55.40;;;;;;6247137;22;20010;-70
2022/07/28 03:38:34;;;;;;;6.22;3.30;;;26.00;55.50;;;;;;6247002;22;20020;-69
2022/07/28 03:41:01;;;;;;;6.50;3.40;;;25.90;55.80;;;;;;6247027;22;20000;-70
2022/07/28 03:43:27;;;;;;;5.50;3.28;;;25.90;55.60;;;;;;6247297;22;20466;-70
2022/07/28 03:45:53;;;;;;;6.32;3.28;;;25.90;55.90;;;;;;6247164;22;20027;-70
2022/07/28 03:48:23;;;;;;;6.00;3.08;;;25.90;55.70;;;;;;6247235;23;20016;-70
2022/07/28 03:50:49;;;;;;;4.43;2.95;;;25.90;55.70;;;;;;6247326;22;20050;-70
2022/07/28 03:53:24;;;;;;;6.72;3.10;;;25.90;55.60;;;;;;6246827;22;20008;-70
2022/07/28 03:55:50;;;;;;;8.10;3.67;;;25.90;55.90;;;;;;6246839;22;20072;-70
2022/07/28 03:58:17;;;;;;;6.22;3.50;;;25.80;55.70;;;;;;6247118;22;20023;-70
2022/07/28 04:00:43;;;;;;;5.45;3.08;;;25.80;55.70;;;;;;6246674;22;19996;-70
2022/07/28 04:03:09;;;;;;;5.50;3.55;;;25.80;55.80;;;;;;6247144;23;20010;-69
2022/07/28 04:05:34;;;;;;;6.85;3.42;;;25.80;56.30;;;;;;6247053;23;20005;-69
2022/07/28 04:08:00;;;;;;;6.53;3.22;;;25.80;56.00;;;;;;6247066;23;20007;-70
2022/07/28 04:10:26;;;;;;;5.20;3.28;;;25.80;56.00;;;;;;6246885;23;20308;-69
2022/07/28 04:12:56;;;;;;;7.57;3.20;;;25.80;56.20;;;;;;6246830;23;20078;-69
2022/07/28 04:15:23;;;;;;;6.65;3.35;;;25.80;56.00;;;;;;6247064;22;20004;-69
2022/07/28 04:17:51;;;;;;;9.38;3.08;;;25.80;55.80;;;;;;6246936;22;20514;-69
2022/07/28 04:20:17;;;;;;;7.60;3.20;;;25.90;55.80;;;;;;6246881;22;20001;-69
2022/07/28 04:22:46;;;;;;;9.85;3.20;;;25.80;55.80;;;;;;6246717;22;20000;-69
2022/07/28 04:25:14;;;;;;;5.60;2.97;;;25.90;55.80;;;;;;6246820;22;20004;-70
2022/07/28 04:27:43;;;;;;;7.45;2.65;;;25.90;55.60;;;;;;6246938;22;20023;-70
2022/07/28 04:30:17;;;;;;;9.10;2.90;;;25.90;55.40;;;;;;6246898;22;20000;-78
2022/07/28 04:32:45;;;;;;;5.10;3.22;;;25.90;55.30;;;;;;6247112;22;20004;-69
2022/07/28 04:35:11;;;;;;;7.68;2.70;;;25.90;55.40;;;;;;6246921;22;20000;-69
2022/07/28 04:37:38;;;;;;;4.90;3.08;;;25.90;55.30;;;;;;6245446;22;20181;-70
2022/07/28 04:40:08;;;;;;;6.57;3.03;;;25.90;55.30;;;;;;6245169;22;20000;-75
2022/07/28 04:42:35;;;;;;;6.78;2.92;;;25.90;55.20;;;;;;6247010;22;20012;-78
2022/07/28 04:45:01;;;;;;;4.57;2.70;;;25.90;55.50;;;;;;6246373;22;20008;-70
2022/07/28 04:47:28;;;;;;;5.18;2.60;;;25.90;55.00;;;;;;6246437;22;20066;-71
2022/07/28 04:49:54;;;;;;;6.30;3.20;;;25.90;55.00;;;;;;6246593;22;20481;-70
2022/07/28 04:52:21;;;;;;;8.38;2.75;;;25.90;55.00;;;;;;6246888;22;20032;-70
2022/07/28 04:54:47;;;;;;;6.13;2.95;;;25.90;54.90;;;;;;6246729;22;19997;-69
2022/07/28 04:57:13;;;;;;;6.28;2.83;;;25.90;55.00;;;;;;6246442;22;20018;-69
2022/07/28 04:59:39;;;;;;;8.98;3.03;;;25.90;55.00;;;;;;6246360;23;20005;-69
2022/07/28 05:02:05;;;;;;;4.30;2.72;;;25.80;54.90;;;;;;6246694;22;20008;-69
2022/07/28 05:04:31;;;;;;;3.97;3.13;;;25.90;55.50;;;;;;6246180;22;20015;-70
2022/07/28 05:06:57;;;;;;;10.23;3.35;;;25.90;55.50;;;;;;6246558;22;20040;-70
2022/07/28 05:09:23;;;;;;;5.78;3.17;;;25.90;55.90;;;;;;6246362;22;20004;-70
2022/07/28 05:11:49;;;;;;;13.35;4.50;;;25.80;55.70;;;;;;6246445;22;20050;-74
2022/07/28 05:14:16;;;;;;;7.90;3.80;;;25.80;56.50;;;;;;6246601;23;20418;-70
2022/07/28 05:16:42;;;;;;;8.80;3.58;;;25.80;57.10;;;;;;6246184;23;20032;-70
2022/07/28 05:19:08;;;;;;;7.90;3.63;;;25.80;57.50;;;;;;6246088;22;20000;-77
2022/07/28 05:21:33;;;;;;;5.25;2.97;;;25.80;57.60;;;;;;6245845;23;20335;-70
2022/07/28 05:23:59;;;;;;;7.43;3.03;;;25.80;58.30;;;;;;6246430;23;20009;-70
2022/07/28 05:26:27;;;;;;;4.07;3.17;;;25.90;58.10;;;;;;6246094;22;20020;-70
2022/07/28 05:28:53;;;;;;;3.78;2.90;;;25.90;58.20;;;;;;6246405;22;20389;-69
2022/07/28 05:31:19;;;;;;;5.55;2.88;;;25.90;57.30;;;;;;6246014;22;20000;-70
2022/07/28 05:33:45;;;;;;;3.63;2.80;;;26.00;55.90;;;;;;6246111;22;20326;-70
2022/07/28 05:36:11;;;;;;;8.45;3.60;;;26.00;56.90;;;;;;6246081;23;20008;-70
2022/07/28 05:38:36;;;;;;;6.43;3.08;;;26.00;57.60;;;;;;6245851;22;20445;-70
2022/07/28 05:41:02;;;;;;;4.07;2.70;;;26.00;56.70;;;;;;6246182;23;19997;-69
2022/07/28 05:43:28;;;;;;;5.35;2.70;;;26.00;56.60;;;;;;6245697;22;20000;-70
2022/07/28 05:45:54;;;;;;;8.50;3.28;;;26.00;55.20;;;;;;6246068;22;20079;-70
2022/07/28 05:48:21;;;;;;;6.95;2.75;;;26.10;55.10;;;;;;6246194;23;20043;-69
2022/07/28 05:50:47;;;;;;;4.68;2.70;;;26.00;54.90;;;;;;6246095;22;20014;-70
2022/07/28 05:53:13;;;;;;;7.97;2.63;;;26.10;54.90;;;;;;6245804;22;20046;-69
2022/07/28 05:55:39;;;;;;;4.88;2.97;;;26.10;54.90;;;;;;6245827;23;20004;-70
2022/07/28 05:58:05;;;;;;;9.20;3.40;;;26.20;53.90;;;;;;6245640;23;20008;-69
2022/07/28 06:00:32;;;;;;;5.05;2.92;;;26.20;53.80;;;;;;6246195;23;20000;-76
2022/07/28 06:03:00;;;;;;;9.13;4.10;;;26.20;53.50;;;;;;6245821;23;20011;-76
2022/07/28 06:05:27;;;;;;;6.38;2.90;;;26.30;53.60;;;;;;6246328;22;20008;-77
2022/07/28 06:07:53;;;;;;;13.13;2.90;;;26.30;53.20;;;;;;6246163;22;20009;-69
2022/07/28 06:10:22;;;;;;;3.55;2.60;;;26.30;53.20;;;;;;6245737;22;20008;-69
2022/07/28 06:12:52;;;;;;;8.95;2.60;;;26.40;53.30;;;;;;6246073;22;20071;-76
2022/07/28 06:15:26;;;;;;;6.85;2.70;;;26.40;53.20;;;;;;6245744;22;20000;-69
2022/07/28 06:17:54;;;;;;;9.45;2.50;;;26.50;53.00;;;;;;6246105;22;20023;-68
2022/07/28 06:20:22;;;;;;;4.75;2.70;;;26.50;52.70;;;;;;6245915;22;20012;-69
2022/07/28 06:22:53;;;;;;;5.68;2.80;;;26.50;53.30;;;;;;6245998;22;20008;-68
2022/07/28 06:25:24;;;;;;;2.72;2.22;;;26.60;53.30;;;;;;6245793;22;20500;-69
2022/07/28 06:27:51;;;;;;;6.55;2.60;;;26.60;53.10;;;;;;6246291;22;20024;-69
2022/07/28 06:30:18;;;;;;;7.97;2.65;;;26.60;52.80;;;;;;6244473;22;20007;-69
2022/07/28 06:32:45;;;;;;;5.93;2.55;;;26.80;53.00;;;;;;6246442;22;20019;-70
2022/07/28 06:35:15;;;;;;;4.50;2.47;;;26.80;52.40;;;;;;6247759;22;20008;-69
2022/07/28 06:37:44;;;;;;;7.82;3.08;;;26.90;51.90;;;;;;6247945;22;20016;-70
2022/07/28 06:40:13;;;;;;;5.25;2.67;;;26.90;51.70;;;;;;6247983;22;20071;-69
2022/07/28 06:42:39;;;;;;;4.47;2.45;;;27.00;51.30;;;;;;6247186;22;20000;-69
2022/07/28 06:45:06;;;;;;;3.45;2.40;;;27.00;51.10;;;;;;6247676;22;19997;-69
2022/07/28 06:47:32;;;;;;;5.68;2.55;;;27.10;51.30;;;;;;6247651;22;20054;-69
2022/07/28 06:49:57;;;;;;;6.10;2.50;;;27.10;50.70;;;;;;6247549;23;20350;-74
2022/07/28 06:52:23;;;;;;;6.97;3.15;;;27.20;50.90;;;;;;6246232;23;20431;-77
2022/07/28 06:54:50;;;;;;;4.90;2.63;;;27.20;50.90;;;;;;6248368;22;20000;-69
2022/07/28 06:57:17;;;;;;;4.55;2.70;;;27.20;50.60;;;;;;6247614;22;20023;-69
2022/07/28 06:59:43;;;;;;;7.95;3.00;;;27.20;50.60;;;;;;6247612;22;20000;-69
2022/07/28 07:02:09;;;;;;;8.15;3.17;;;27.30;50.60;;;;;;6248078;22;20004;-69
2022/07/28 07:04:36;;;;;;;5.97;3.03;;;27.30;50.30;;;;;;6247679;22;20011;-71
2022/07/28 07:07:01;;;;;;;10.52;3.28;;;27.30;50.20;;;;;;6247777;23;20054;-69
2022/07/28 07:09:27;;;;;;;4.25;2.88;;;27.40;50.00;;;;;;6247884;23;20000;-69
2022/07/28 07:11:53;;;;;;;8.43;3.10;;;27.50;49.90;;;;;;6247382;23;20075;-69
2022/07/28 07:14:18;;;;;;;4.47;2.90;;;27.50;49.90;;;;;;6247476;23;20000;-69
2022/07/28 07:16:44;;;;;;;5.00;2.88;;;27.50;49.90;;;;;;6247449;23;20484;-69
2022/07/28 07:19:10;;;;;;;5.32;3.15;;;27.50;49.70;;;;;;6247821;22;20024;-69
2022/07/28 07:21:35;;;;;;;5.20;3.15;;;27.60;49.90;;;;;;6247305;22;20008;-69
2022/07/28 07:24:01;;;;;;;11.55;3.13;;;27.60;49.20;;;;;;6247540;23;20062;-69
2022/07/28 07:26:27;;;;;;;9.75;3.35;;;27.70;49.30;;;;;;6247539;22;20016;-77
2022/07/28 07:28:52;;;;;;;6.28;2.92;;;27.70;49.70;;;;;;6247753;22;20008;-77
2022/07/28 07:31:18;;;;;;;6.22;3.03;;;27.70;49.80;;;;;;6247287;23;20000;-69
2022/07/28 07:33:44;;;;;;;7.47;2.80;;;27.70;49.70;;;;;;6247432;23;20081;-69
2022/07/28 07:36:09;;;;;;;3.70;2.90;;;27.80;49.60;;;;;;6247387;22;20323;-69
2022/07/28 07:38:35;;;;;;;4.38;2.97;;;27.90;49.30;;;;;;6247408;23;20008;-68
2022/07/28 07:41:01;;;;;;;4.45;2.80;;;27.90;49.00;;;;;;6247171;22;20327;-73
2022/07/28 07:43:26;;;;;;;9.90;3.30;;;28.00;49.00;;;;;;6246974;23;20024;-71
2022/07/28 07:45:52;;;;;;;5.97;3.22;;;28.00;48.70;;;;;;6247413;22;20005;-69
2022/07/28 07:48:18;;;;;;;9.18;3.38;;;28.10;48.90;;;;;;6247131;23;20000;-69
2022/07/28 07:50:43;;;;;;;5.45;2.97;;;28.10;48.30;;;;;;6247250;23;20119;-69
2022/07/28 07:53:09;;;;;;;7.25;3.17;;;28.10;48.10;;;;;;6247507;22;20008;-69
2022/07/28 07:55:35;;;;;;;9.77;3.50;;;28.20;48.50;;;;;;6247042;22;20011;-69
2022/07/28 07:58:01;;;;;;;4.90;2.85;;;28.20;48.10;;;;;;6247343;22;20048;-69
2022/07/28 08:00:27;;;;;;;8.60;2.90;;;28.30;48.10;;;;;;6247108;22;20280;-70
2022/07/28 08:02:52;;;;;;;7.25;3.22;;;28.30;47.90;;;;;;6247162;23;20380;-69
2022/07/28 08:05:18;;;;;;;5.38;3.00;;;28.40;47.40;;;;;;6247719;23;20003;-77
2022/07/28 08:07:44;;;;;;;4.28;2.70;;;28.40;47.70;;;;;;6247025;22;20445;-69
2022/07/28 08:10:10;;;;;;;7.88;2.95;;;28.50;47.50;;;;;;6247122;22;20419;-69
2022/07/28 08:12:36;;;;;;;7.60;3.00;;;28.50;47.20;;;;;;6247258;22;20012;-69
2022/07/28 08:15:02;;;;;;;8.32;3.17;;;28.50;47.20;;;;;;6246825;22;20449;-69
2022/07/28 08:17:28;;;;;;;4.00;2.60;;;28.60;47.40;;;;;;6246731;22;20438;-69
2022/07/28 08:19:54;;;;;;;5.55;2.70;;;28.60;47.00;;;;;;6247005;23;20007;-69
2022/07/28 08:22:20;;;;;;;4.18;2.50;;;28.70;47.10;;;;;;6247105;23;20541;-69
2022/07/28 08:24:46;;;;;;;8.27;2.90;;;28.70;46.90;;;;;;6246874;22;20082;-69
2022/07/28 08:27:11;;;;;;;5.80;2.78;;;28.80;46.50;;;;;;6246264;22;20039;-69
2022/07/28 08:29:37;;;;;;;5.07;2.60;;;28.80;46.40;;;;;;6246942;22;20007;-78
2022/07/28 08:32:03;;;;;;;4.95;3.25;;;28.90;46.80;;;;;;6246792;23;20004;-68
2022/07/28 08:34:32;;;;;;;6.72;2.80;;;28.90;46.30;;;;;;6246783;22;20004;-69
2022/07/28 08:36:58;;;;;;;6.90;2.90;;;28.90;46.20;;;;;;6246543;22;20384;-68
2022/07/28 08:39:24;;;;;;;8.20;3.10;;;28.90;46.10;;;;;;6246814;22;20065;-69
2022/07/28 08:41:59;;;;;;;6.93;2.75;;;29.00;46.50;;;;;;6247014;22;20087;-77
2022/07/28 08:44:29;;;;;;;3.28;2.78;;;29.00;46.00;;;;;;6246595;22;20000;-68
2022/07/28 08:46:56;;;;;;;6.63;2.42;;;29.00;45.80;;;;;;6246653;22;20311;-69
2022/07/28 08:49:23;;;;;;;5.72;2.95;;;29.10;45.90;;;;;;6246893;22;20008;-77
2022/07/28 08:51:49;;;;;;;3.65;2.90;;;29.10;45.50;;;;;;6247043;22;20030;-77
2022/07/28 08:54:18;;;;;;;7.25;3.03;;;29.20;45.50;;;;;;6246403;22;20008;-69
2022/07/28 08:56:46;;;;;;;7.13;2.45;;;29.20;45.30;;;;;;6246151;22;20092;-77
2022/07/28 08:59:12;;;;;;;7.47;2.60;;;29.20;45.30;;;;;;6246554;22;20004;-69
2022/07/28 09:01:38;;;;;;;4.22;2.70;;;29.30;45.40;;;;;;6246423;22;20054;-69
2022/07/28 09:04:06;;;;;;;3.55;2.83;;;29.30;45.00;;;;;;6246533;22;20004;-78
2022/07/28 09:06:32;;;;;;;4.40;2.55;;;29.40;45.30;;;;;;6246441;22;20334;-75
2022/07/28 09:08:58;;;;;;;4.53;2.67;;;29.40;45.00;;;;;;6246527;22;20028;-69
2022/07/28 09:11:26;;;;;;;4.72;2.63;;;29.40;44.90;;;;;;6246698;23;20079;-74
2022/07/28 09:13:52;;;;;;;5.88;2.75;;;29.50;44.90;;;;;;6246542;22;20024;-69
2022/07/28 09:16:18;;;;;;;3.80;2.80;;;29.50;45.00;;;;;;6246792;22;20015;-72
2022/07/28 09:18:44;;;;;;;5.20;2.70;;;29.60;44.60;;;;;;6246006;22;20020;-69
2022/07/28 09:21:14;;;;;;;4.32;2.70;;;29.60;44.80;;;;;;6246499;22;19996;-69
2022/07/28 09:23:44;;;;;;;3.25;2.40;;;29.70;44.70;;;;;;6246271;22;20008;-68
2022/07/28 09:26:11;;;;;;;5.85;2.60;;;29.70;44.50;;;;;;6246383;22;20000;-68
2022/07/28 09:29:07;;;;;;;6.88;2.70;;;29.80;44.70;;;;;;6246349;22;20484;-69
2022/07/28 09:31:32;;;;;;;4.57;2.63;;;29.80;44.40;;;;;;6239699;23;20016;-69
2022/07/28 09:34:02;;;;;;;7.55;2.88;;;29.90;44.20;;;;;;6245984;23;20403;-69
2022/07/28 09:36:36;;;;;;;4.53;2.65;;;30.00;44.30;;;;;;6246169;22;20327;-68
2022/07/28 09:39:02;;;;;;;8.10;2.90;;;30.10;43.50;;;;;;6246514;22;20012;-69
2022/07/28 09:41:28;;;;;;;8.70;2.67;;;30.10;43.80;;;;;;6246291;23;20078;-69
2022/07/28 09:43:54;;;;;;;3.35;2.40;;;30.20;44.20;;;;;;6246258;22;20122;-78
2022/07/28 09:46:21;;;;;;;3.38;2.35;;;30.30;43.70;;;;;;6246542;22;20000;-70
2022/07/28 09:48:57;;;;;;;6.30;2.92;;;30.30;43.20;;;;;;6246015;22;20004;-69
2022/07/28 09:51:30;;;;;;;3.08;2.28;;;30.40;43.30;;;;;;6246421;22;20008;-78
2022/07/28 09:54:10;;;;;;;4.25;2.60;;;30.40;43.10;;;;;;6246068;22;20122;-69
2022/07/28 09:56:38;;;;;;;7.50;2.55;;;30.40;43.20;;;;;;6246047;22;20008;-69
2022/07/28 09:59:03;;;;;;;2.60;2.30;;;30.40;43.20;;;;;;6246028;22;20095;-77
2022/07/28 10:01:29;;;;;;;5.63;2.58;;;30.50;43.00;;;;;;6246044;22;20371;-69
2022/07/28 10:03:57;;;;;;;7.97;2.58;;;30.50;43.20;;;;;;6246244;22;20024;-68
2022/07/28 10:06:31;;;;;;;5.05;2.53;;;30.60;43.10;;;;;;6246013;22;20008;-69
2022/07/28 10:08:59;;;;;;;4.13;2.47;;;30.60;43.00;;;;;;6245835;22;20437;-69
2022/07/28 10:11:26;;;;;;;4.60;2.40;;;30.70;43.00;;;;;;6246118;22;20063;-77
2022/07/28 10:14:01;;;;;;;4.57;2.67;;;30.70;43.10;;;;;;6245742;22;20008;-78
2022/07/28 10:16:29;;;;;;;5.57;2.65;;;30.80;42.90;;;;;;6246065;22;20000;-69
2022/07/28 10:18:58;;;;;;;9.13;2.80;;;30.80;42.40;;;;;;6245792;22;20047;-69
2022/07/28 10:21:25;;;;;;;2.65;2.42;;;30.90;42.90;;;;;;6245977;22;20000;-70
2022/07/28 10:23:55;;;;;;;4.90;2.40;;;30.90;42.50;;;;;;6245900;22;20323;-70
2022/07/28 10:26:31;;;;;;;6.13;2.70;;;30.90;42.00;;;;;;6246086;22;20016;-78
2022/07/28 10:28:59;;;;;;;3.53;2.65;;;30.90;42.50;;;;;;6246266;22;20031;-76
2022/07/28 10:31:33;;;;;;;2.70;2.10;;;30.90;42.60;;;;;;6245942;22;19996;-69
2022/07/28 10:34:01;;;;;;;6.40;2.72;;;31.00;42.70;;;;;;6245938;22;20004;-69
2022/07/28 10:36:28;;;;;;;5.65;2.63;;;31.10;41.90;;;;;;6245621;22;20103;-69
2022/07/28 10:39:01;;;;;;;2.55;2.35;;;31.10;41.70;;;;;;6245838;22;20012;-69
2022/07/28 10:41:33;;;;;;;3.75;2.42;;;31.20;42.30;;;;;;6245814;22;20031;-70
2022/07/28 10:44:01;;;;;;;4.85;2.45;;;31.20;42.00;;;;;;6245674;22;20088;-70
2022/07/28 10:46:28;;;;;;;4.28;2.45;;;31.30;41.90;;;;;;6245551;22;20000;-78
2022/07/28 10:48:54;;;;;;;3.92;2.72;;;31.30;41.90;;;;;;6245777;22;20020;-77
2022/07/28 10:51:21;;;;;;;3.65;2.33;;;31.40;41.80;;;;;;6245802;22;20304;-69
2022/07/28 10:53:54;;;;;;;3.22;2.30;;;31.50;42.40;;;;;;6245615;23;20331;-69
2022/07/28 10:56:48;;;;;;;3.45;2.38;;;31.60;42.10;;;;;;6245815;22;20079;-69
2022/07/28 10:59:33;;;;;;;2.85;2.30;;;31.60;41.50;;;;;;6245266;23;20101;-70
2022/07/28 11:01:58;;;;;;;2.88;2.25;;;31.60;41.20;;;;;;6245421;23;20446;-78
2022/07/28 11:04:43;;;;;;;5.50;2.50;;;31.60;41.40;;;;;;6245926;23;20008;-76
2022/07/28 11:07:19;;;;;;;3.33;2.25;;;31.70;41.30;;;;;;6245804;22;20031;-69
2022/07/28 11:09:48;;;;;;;3.80;2.50;;;31.70;40.60;;;;;;6245685;22;20000;-69
2022/07/28 11:12:15;;;;;;;2.45;2.20;;;31.70;40.80;;;;;;6245402;22;20000;-77
2022/07/28 11:14:41;;;;;;;3.22;2.60;;;31.70;41.10;;;;;;6244047;23;20019;-73
2022/07/28 11:17:06;;;;;;;5.05;2.65;;;31.70;40.80;;;;;;6245229;22;20094;-73
2022/07/28 11:19:44;;;;;;;2.65;2.33;;;31.80;41.10;;;;;;6246933;23;20004;-72
2022/07/28 11:22:13;;;;;;;5.03;2.20;;;31.80;41.00;;;;;;6247915;23;20326;-69
2022/07/28 11:24:57;;;;;;;4.38;2.25;;;31.80;41.20;;;;;;6247288;22;20123;-73
2022/07/28 11:27:48;;;;;;;6.25;2.47;;;31.90;41.70;;;;;;6247311;22;20048;-70
2022/07/28 11:32:54;;;;;;;3.55;2.55;;;32.10;40.70;;;;;;6247439;22;20016;-69
2022/07/28 11:35:28;;;;;;;3.28;2.28;;;32.10;40.00;;;;;;6247246;22;20011;-78
2022/07/28 11:37:59;;;;;;;4.93;2.53;;;32.10;40.00;;;;;;6247066;22;20008;-77
2022/07/28 11:40:40;;;;;;;;;;;32.10;40.50;;;;;;6247918;23;20016;-72
2022/07/28 11:43:37;;;;;;;4.72;2.70;;;32.10;40.00;;;;;;6247165;22;19925;-69
2022/07/28 11:46:03;;;;;;;4.07;2.60;;;32.10;39.90;;;;;;6240916;23;20008;-69
2022/07/28 11:48:29;;;;;;;2.80;2.22;;;32.20;39.90;;;;;;6247629;23;20553;-77
2022/07/28 11:51:04;;;;;;;10.00;2.55;;;32.20;39.60;;;;;;6247041;22;20007;-70
2022/07/28 11:53:37;;;;;;;5.00;2.38;;;32.30;40.20;;;;;;6247565;23;20338;-77
2022/07/28 11:56:09;;;;;;;4.90;2.40;;;32.30;39.60;;;;;;6247267;22;19996;-69
2022/07/28 11:58:35;;;;;;;;;;;32.40;39.50;;;;;;6244440;22;20016;-69
2022/07/28 12:01:14;;;;;;;4.18;2.38;;;32.40;39.20;;;;;;6243812;22;19910;-69
2022/07/28 12:03:41;;;;;;;4.55;2.42;;;32.50;39.20;;;;;;6244295;22;20035;-69
2022/07/28 12:06:14;;;;;;;3.97;2.20;;;32.50;38.90;;;;;;6246322;22;19996;-74
2022/07/28 12:09:01;;;;;;;4.93;2.40;;;32.50;38.80;;;;;;6246852;22;20008;-69
2022/07/28 12:11:30;;;;;;;2.70;2.45;;;32.50;38.60;;;;;;6246350;22;20012;-69
2022/07/28 12:14:01;;;;;;;4.55;2.30;;;32.60;39.00;;;;;;6246976;22;20104;-69
2022/07/28 12:16:27;;;;;;;3.25;2.10;;;32.60;39.30;;;;;;6246918;22;20005;-70
2022/07/28 12:18:54;;;;;;;5.47;2.17;;;32.70;39.30;;;;;;6246603;22;20083;-69
2022/07/28 12:21:34;;;;;;;5.15;2.35;;;32.70;38.80;;;;;;6246806;22;20023;-69
2022/07/28 12:24:00;;;;;;;3.05;2.20;;;32.70;39.40;;;;;;6246819;23;20023;-78
2022/07/28 12:26:34;;;;;;;4.40;2.40;;;32.70;38.50;;;;;;6246345;23;20500;-77
2022/07/28 12:29:00;;;;;;;3.60;2.20;;;32.60;38.70;;;;;;6246545;22;20012;-77
2022/07/28 12:31:31;;;;;;;5.75;3.30;;;32.60;39.80;;;;;;6246838;23;20001;-69
2022/07/28 12:34:01;;;;;;;3.55;2.08;;;32.70;38.40;;;;;;6246959;22;20011;-70
2022/07/28 12:36:28;;;;;;;7.03;3.08;;;32.70;38.10;;;;;;6246689;22;20073;-69
2022/07/28 12:38:54;;;;;;;4.30;2.70;;;32.60;38.10;;;;;;6246866;22;20016;-69
2022/07/28 12:41:21;;;;;;;6.70;2.30;;;32.60;38.10;;;;;;6246511;22;20431;-68
2022/07/28 12:43:51;;;;;;;3.35;2.58;;;32.60;38.60;;;;;;6246033;22;20019;-69
2022/07/28 12:46:25;;;;;;;3.65;2.13;;;32.70;39.10;;;;;;6246924;22;20106;-70
2022/07/28 12:48:54;;;;;;;6.57;2.50;;;32.80;38.80;;;;;;6243823;22;20004;-70
2022/07/28 12:51:39;;;;;;;3.10;2.20;;;32.80;38.50;;;;;;6243021;22;20442;-70
2022/07/28 12:54:10;;;;;;;2.67;2.15;;;32.90;38.70;;;;;;6245517;22;20004;-69
2022/07/28 12:56:50;;;;;;;3.85;2.42;;;32.90;38.50;;;;;;6246549;22;20008;-69
2022/07/28 12:59:18;;;;;;;3.67;2.10;;;32.90;38.10;;;;;;6246601;22;20442;-69
2022/07/28 13:01:50;;;;;;;3.20;2.50;;;32.90;38.10;;;;;;6246846;22;20036;-70